AirNav   Pilot Hours Calculator
 
 482 users online  

7PS0 B S Corporation Steelton Plant Heliport
Steelton, Pennsylvania, USA

GOING TO STEELTON?


FAA INFORMATION EFFECTIVE 07 NOVEMBER 2019

Location

FAA Identifier: 7PS0
Lat/Long: 40-13-50.3250N 076-50-11.9000W
40-13.838750N 076-50.198333W
40.2306458,-76.8366389
(estimated)
Elevation: 300 ft. / 91 m (estimated)
Variation: 10W (1985)
Time zone: UTC -5 (UTC -4 during Daylight Saving Time)
Zip code: 17113

Heliport Operations

Heliport use: Private use. Permission required prior to landing
Activation date: 10/1987
Control tower: no
ARTCC: NEW YORK CENTER
FSS: WILLIAMSPORT FLIGHT SERVICE STATION
Attendance: CONTINUOUS
Segmented circle: yes

Heliport Communications

WX ASOS at CXY (1.1 nm SW): PHONE 717-770-0880
WX ASOS at MDT (4 nm SE): PHONE 717-944-1372
WX ASOS at MUI (17 nm NE): 124.175 (717-861-2536)
WX ASOS at THV (19 nm S): 119.275 (717-792-5529)

Nearby radio navigation aids

VOR radial/distance  VOR name  Freq  Var
HARr122/11.5HARRISBURG VORTAC112.5010W
RAVr220/22.2RAVINE VORTAC114.6011W
LRPr294/25.9LANCASTER VOR/DME117.3009W
SEGr184/33.7SELINSGROVE VOR/DME110.4008W

 
NDB name  Hdg/Dist  Freq  Var  ID
ENOLA119/3.120411WMD -- -..
LATLE079/8.421911WCX -.-. -..-
BELLGROVE236/17.932810WBZJ -... --.. .---

Heliport Services

Fuel available: MOGAS

Runway Information

Helipad H1

Dimensions: 45 x 45 ft. / 14 x 14 m
Surface: asphalt
Traffic pattern: leftleft

Heliport Ownership and Management from official FAA records

Ownership: Privately-owned
Owner: ARCELORMITTAL STEALTON LLC
215 S. FRONT ST.
STEELTON, PA 17113
Phone 717-986-2453
Manager: STEVEN C. TAYLOR
215 S. FRONT ST.
STEELTON, PA 17113
Phone 717-096-2542

Additional Remarks

FOR CD CTC HARRISBURG APCH AT 800-932-0712.

Instrument Procedures

There are no published instrument procedures at 7PS0.

Some nearby airports with instrument procedures:

KCXY - Capital City Airport (1 nm SW)
KMDT - Harrisburg International Airport (4 nm SE)
58N - Reigle Field Airport (12 nm E)
N71 - Donegal Springs Airpark (15 nm SE)
N94 - Carlisle Airport (16 nm W)
KMUI - Muir Army Airfield (Fort Indiantown Gap) (17 nm NE)
KTHV - York Airport (19 nm S)
 
Loc | Ops | Rwys | IFR | FBO | Links
Com | Nav | Svcs | Stats | Notes
Area around 7PS0 (B S Corporation Steelton Plant Heliport)
 
Road maps at: MapQuest Bing Google
 
Aerial photo
No photo
 
Sectional chart

 
Airport distance calculator
Flying to B S Corporation Steelton Plant Heliport? Find the distance to fly.

From to 7PS0

Sunrise and sunset
Times for 12-Nov-2019
 Local
(UTC-5)
 Zulu
(UTC)
Morning civil twilight06:2211:22
Sunrise06:5111:51
Sunset16:5221:52
Evening civil twilight17:2122:21

Current date and time
Zulu (UTC)  12-Nov-2019 06:07:11
Local (UTC-5)  12-Nov-2019 01:07:11
 
METAR
KCXY 120556Z AUTO 10SM SCT070 OVC085 16/04 A2973 RMK AO2 SLP067 T01560044 10156 20122 56019
KMDT 
4nm SE 
120556Z 23011G18KT 10SM SCT075 OVC095 15/04 A2972 RMK AO2 SLP062 T01500044 10156 20100 56020
KMUI 
17nm NE 
120556Z AUTO 00000KT 10SM -RA FEW065 BKN080 BKN110 OVC130 09/06 A2973 RMK AO2 RAB53 SLP071 P0000 60000 T00900056 10106 20073 57020 $
KTHV 
19nm S 
120553Z AUTO 00000KT 10SM FEW120 14/04 A2969 RMK AO2 PRESFR SLP056 T01440039 10150 20133 58030
TAF
KMDT 
4nm SE 
120603Z 1206/1306 22009G16KT P6SM -RA OVC080 FM120800 24010KT 5SM -RA BR OVC040 FM121100 30012G22KT P6SM SCT025 OVC035 FM121400 31015G25KT P6SM BKN060 FM122200 31015G25KT P6SM SKC
NOTAMs
Click for the latest NOTAMs
NOTAMs are issued by the DoD/FAA and will open in a separate window not controlled by AirNav.

 

 
 

Would you like to see your business listed on this page?

 If your business provides an interesting product or service to pilots, flight crews, aircraft, or users of the B S Corporation Steelton Plant Heliport, you should consider listing it here.  To start the listing process, click on the button below
 
Add a business
 

Other Pages about B S Corporation Steelton Plant Heliport

Update a link
 
Copyright © AirNav, LLC. All rights reserved. Privacy Policy  Contact